Flight Track Log - Related Links

Times and Time Zones

All times are in EDT time to prevent confusion due to time zone crossing. See the UAL4686 flight status page for this flight to view local times or setup timezone preferences in your user account.


Time Position Orientation Groundspeed Altitude Reporting Facility
EDT Latitude Longitude Course Direction KTS MPH feet Rate Location/Type
Thu 07:59:02 PM 36.1167 -86.6833 68° East 154 177 1,100  Level Nashville TRACON
Thu 08:00:20 PM 36.0667 -86.6500 152° Southeast 217 250 3,300 1,273 Climbing Nashville TRACON
Thu 08:01:14 PM 36.0639 -86.5781 93° East 262 302 3,900 1,231 Climbing Memphis Center
Thu 08:02:17 PM 36.0892 -86.4900 70° East 269 310 5,700 1,920 Climbing Memphis Center
Thu 08:03:00 PM 36.2297 -85.9924 64° Northeast  Level FlightAware Approximate
Thu 08:03:19 PM 36.1142 -86.4000 71° East 271 312 7,900  Level Memphis Center
Thu 08:04:00 PM 36.2777 -85.8669 68° East  Level FlightAware Approximate
Thu 08:04:21 PM 36.1436 -86.2858 72° East 289 333 10,100  Level Memphis Center
Thu 08:05:23 PM 36.1722 -86.1778 72° East 319 367 11,000 968 Climbing Memphis Center
Thu 08:06:25 PM 36.2061 -86.0575 71° East 356 410 12,100 1,065 Climbing Memphis Center
Thu 08:07:27 PM 36.2603 -85.9378 61° Northeast 384 442 13,200 1,161 Climbing Memphis Center
Thu 08:08:29 PM 36.3183 -85.8069 61° Northeast 400 460 14,500 1,210 Climbing Memphis Center
Thu 08:09:31 PM 36.3769 -85.6822 60° Northeast 409 471 15,700 1,125 Climbing Memphis Center
Thu 08:10:37 PM 36.4364 -85.5575 59° Northeast 413 475 16,900 1,172 Climbing Indianapolis Center
Thu 08:11:39 PM 36.4969 -85.4294 60° Northeast 424 488 18,200 1,306 Climbing Indianapolis Center
Thu 08:12:41 PM 36.5719 -85.2725 59° Northeast 434 499 19,600 1,258 Climbing Indianapolis Center
Thu 08:13:43 PM 36.6292 -85.1350 63° Northeast 440 506 20,800 1,210 Climbing Indianapolis Center
Thu 08:14:45 PM 36.6739 -84.9856 69° East 453 521 22,100 1,220 Climbing Indianapolis Center
Thu 08:15:46 PM 36.7197 -84.8361 69° East 458 527 23,300 1,171 Climbing Indianapolis Center
Thu 08:16:48 PM 36.7658 -84.6856 69° East 459 528 24,500 1,113 Climbing Indianapolis Center
Thu 08:17:50 PM 36.8122 -84.5347 69° East 460 529 25,600 1,065 Climbing Indianapolis Center
Thu 08:18:52 PM 36.8583 -84.3783 70° East 470 541 26,700 1,065 Climbing Indianapolis Center
Thu 08:19:54 PM 36.9122 -84.1986 69° East 470 541 27,800 1,073 Climbing Indianapolis Center
Thu 08:20:55 PM 36.9586 -84.0436 69° East 474 545 28,900 1,024 Climbing Indianapolis Center
Thu 08:21:57 PM 37.0044 -83.8883 70° East 474 545 29,900 968 Climbing Indianapolis Center
Thu 08:22:59 PM 37.0503 -83.7308 70° East 474 545 30,900 968 Climbing Indianapolis Center
Thu 08:24:01 PM 37.0975 -83.5747 69° East 477 549 31,900 976 Climbing Indianapolis Center
Thu 08:25:02 PM 37.1428 -83.4158 70° East 478 550 32,900 976 Climbing Indianapolis Center
Thu 08:26:04 PM 37.1886 -83.2558 70° East 479 551 33,900 919 Climbing Indianapolis Center
Thu 08:27:06 PM 37.2350 -83.0958 70° East 481 554 34,800 532 Climbing Indianapolis Center
Thu 08:28:08 PM 37.2892 -82.9050 70° East 486 559 35,000 98 Climbing Indianapolis Center
Thu 08:29:09 PM 37.3386 -82.7342 70° East 506 582 35,000  Level Indianapolis Center
Thu 08:30:11 PM 37.3883 -82.5564 71° East 528 608 35,000  Level Indianapolis Center
Thu 08:31:13 PM 37.4394 -82.3747 70° East 541 623 35,000  Level Indianapolis Center
Thu 08:32:14 PM 37.4903 -82.1928 71° East 544 626 35,000 -244 Level Indianapolis Center
Thu 08:33:16 PM 37.5400 -82.0094 71° East 547 629 34,500 -677 Descending Indianapolis Center
Thu 08:34:18 PM 37.5897 -81.8306 71° East 547 629 33,600 -732 Descending Indianapolis Center
Thu 08:35:19 PM 37.6372 -81.6506 72° East 541 623 33,000 -293 Descending Indianapolis Center
Thu 08:36:21 PM 37.6897 -81.4586 71° East 540 621 33,000  Level Indianapolis Center
Thu 08:37:23 PM 37.7375 -81.2825 71° East 540 621 33,000  Level Indianapolis Center
Thu 08:38:24 PM 37.7825 -81.0656 75° East 548 631 33,000  Level Indianapolis Center
Thu 08:39:26 PM 37.7969 -80.8806 84° East 546 628 33,000  Level Indianapolis Center
Thu 08:40:27 PM 37.8083 -80.6964 85° East 546 628 33,000  Level Indianapolis Center
Thu 08:41:23 PM 37.8222 -80.5106 85° East 537 618 33,000  Level Washington Center
Thu 08:42:24 PM 37.8319 -80.3194 86° East 537 618 33,000  Level Washington Center
Thu 08:43:25 PM 37.8469 -80.1467 84° East 537 618 33,000  Level Washington Center
Thu 08:44:23 PM 37.8644 -79.9583 83° East 537 618 33,000  Level Washington Center
Thu 08:45:26 PM 37.8836 -79.7675 83° East 537 618 33,000  Level Washington Center
Thu 08:46:24 PM 37.9006 -79.5789 83° East 537 618 33,000  Level Washington Center
Thu 08:47:24 PM 37.9150 -79.3875 84° East 537 618 33,000  Level Washington Center
Thu 08:48:24 PM 37.9333 -79.2014 83° East 537 618 33,000  Level Washington Center
Thu 08:49:25 PM 37.9497 -78.9967 84° East 537 618 33,000  Level Washington Center
Thu 08:50:23 PM 37.9653 -78.8106 84° East 537 618 33,000  Level Washington Center
Thu 08:51:24 PM 37.9808 -78.6214 84° East 537 618 33,000  Level Washington Center
Thu 08:52:24 PM 37.9958 -78.4350 84° East 537 618 33,000  Level Washington Center
Thu 08:53:25 PM 38.0078 -78.2667 85° East 537 618 33,000  Level Washington Center
Thu 08:54:25 PM 38.0539 -78.0733 73° East 523 602 33,000  Level Washington Center
Thu 08:55:23 PM 38.1342 -77.9122 58° Northeast 517 595 33,000  Level Washington Center
Thu 08:56:24 PM 38.2164 -77.7483 57° Northeast 529 609 33,000  Level Washington Center
Thu 08:57:23 PM 38.2964 -77.5811 59° Northeast 543 625 33,000  Level Washington Center
Thu 08:58:24 PM 38.3761 -77.4164 58° Northeast 548 631 33,000  Level Washington Center
Thu 08:59:24 PM 38.4600 -77.2489 57° Northeast 553 636 33,000  Level Washington Center
Thu 09:00:25 PM 38.5414 -77.0833 58° Northeast 553 636 33,000  Level Washington Center
Thu 09:01:23 PM 38.6350 -76.9286 52° Northeast 540 621 33,000 -252 Level Washington Center
Thu 09:02:24 PM 38.7303 -76.7758 51° Northeast 550 633 32,500 -1,131 Descending Washington Center
Thu 09:03:25 PM 38.8278 -76.6228 51° Northeast 550 633 30,700 -1,765 Descending Washington Center
Thu 09:04:23 PM 38.9206 -76.4722 52° Northeast 550 633 29,000 -1,780 Descending Washington Center
Thu 09:05:23 PM 39.0175 -76.3211 50° Northeast 550 633 27,200 -992 Descending Washington Center
Thu 09:06:24 PM 39.1100 -76.1694 52° Northeast 544 626 27,000 -99 Descending Washington Center
Thu 09:07:24 PM 39.2044 -76.0175 51° Northeast 538 619 27,000  Level Washington Center
Thu 09:08:25 PM 39.2986 -75.8653 51° Northeast 538 619 27,000 -99 Level Washington Center
Thu 09:09:25 PM 39.3925 -75.7125 51° Northeast 538 619 26,800 -254 Descending Washington Center
Thu 09:10:23 PM 39.4864 -75.5567 52° Northeast 538 619 26,500 -454 Descending Washington Center
Thu 09:11:24 PM 39.5781 -75.4031 52° Northeast 533 613 25,900 -934 Descending Washington Center
Thu 09:12:25 PM 39.6839 -75.2761 43° Northeast 516 594 24,600 -1,785 Descending Washington Center
Thu 09:13:25 PM 39.8025 -75.1811 32° Northeast 511 588 22,300 -1,932 Descending Washington Center
Thu 09:14:23 PM 39.9064 -75.0911 34° Northeast 469 540 20,800 -1,475 Descending Washington Center
Thu 09:15:23 PM 39.9767 -74.9769 51° Northeast 439 505 19,400 -2,431 Descending Washington Center
Thu 09:16:19 PM 40.0500 -74.8333 56° Northeast 429 494 16,100 -3,466 Descending New York TRACON
Thu 09:17:19 PM 40.1333 -74.7667 31° Northeast 390 449 12,700 -2,850 Descending New York TRACON
Thu 09:18:19 PM 40.2333 -74.7167 21° North 356 410 10,400 -1,714 Descending New York TRACON
Thu 09:19:25 PM 40.3333 -74.7000 North 316 364 9,100 -1,100 Descending New York TRACON
Thu 09:20:19 PM 40.4000 -74.6833 11° North 283 326 8,200 -1,263 Descending New York TRACON
Thu 09:21:19 PM 40.4833 -74.6500 17° North 289 333 6,700 -1,048 Descending New York TRACON
Thu 09:22:25 PM 40.5667 -74.6333 North 274 315 6,000 -333 Descending New York TRACON
Thu 09:23:25 PM 40.6333 -74.6167 11° North 280 322 6,000  Level New York TRACON
Thu 09:24:25 PM 40.7167 -74.6000 North 278 320 6,000  Level New York TRACON
Thu 09:25:31 PM 40.8000 -74.5667 17° North 277 319 6,000  Level New York TRACON
Thu 09:26:19 PM 40.8500 -74.5333 27° Northeast 282 325 6,000 -105 Level New York TRACON
Thu 09:27:25 PM 40.9167 -74.4667 37° Northeast 285 328 5,800 -450 Descending New York TRACON
Thu 09:28:19 PM 40.9667 -74.4000 45° Northeast 290 334 5,100 -350 Descending New York TRACON
Thu 09:29:25 PM 41.0000 -74.3000 66° East 282 325 5,100 -50 Level New York TRACON
Thu 09:30:19 PM 40.9833 -74.2167 105° East 279 321 5,000 -56 Descending New York TRACON
Thu 09:31:13 PM 40.9500 -74.1333 118° Southeast 255 293 5,000 -650 Level New York TRACON
Thu 09:32:19 PM 40.9167 -74.0667 123° Southeast 231 266 3,700 -952 Descending New York TRACON
Thu 09:33:19 PM 40.8500 -74.0667 180° South 208 239 3,000 -714 Descending New York TRACON
Thu 09:34:25 PM 40.7833 -74.0833 191° South 209 241 2,200 -714 Descending New York TRACON
Thu 09:35:25 PM 40.7333 -74.0833 180° South 194 223 1,500 -632 Descending New York TRACON
Thu 09:36:19 PM 40.7000 -74.1000 201° Southwest 137 158 1,000 -556 Descending New York TRACON
Thu 09:38:00 PM 40.6833 -74.1667 174° South  Level FlightAware Approximate

Login

Don't have an account? Register now (free) for customized features, flight alerts, and more!